DAL2525 RKPC-RKJY
Flight info
| Callsign | DAL2525 |
|---|---|
| Flight time | 0h 29m |
| Altitude | 13000 |
| Route | MAKET4K MAKET A586 GOSBO |
| Aircraft | A320/M-SDE3FGHIRWY/LB1 |
Departure
| Time | 2026-04-22 08:17 |
|---|---|
| Airport | Jeju International Airport (RKPC) |
Arrival
| Time | 2026-04-22 08:47 |
|---|---|
| Airport | Yeosu Airport (RKJY) |
| Time | Latitude | Longitude | Altitude | Speed | Heading |
|---|---|---|---|---|---|
| 2026-04-22 08:01 | 33.50491 | 126.48763 | 91 ft | 0 kts | 148° |
| 2026-04-22 08:09 | 33.50495 | 126.48760 | 92 ft | 3 kts | 148° |
| 2026-04-22 08:09 | 33.50513 | 126.48748 | 91 ft | 3 kts | 154° |
| 2026-04-22 08:09 | 33.50531 | 126.48738 | 91 ft | 3 kts | 165° |
| 2026-04-22 08:10 | 33.50551 | 126.48734 | 90 ft | 2 kts | 182° |
| 2026-04-22 08:10 | 33.50557 | 126.48734 | 94 ft | 0 kts | 186° |
| 2026-04-22 08:12 | 33.50554 | 126.48730 | 94 ft | 1 kts | 228° |
| 2026-04-22 08:12 | 33.50549 | 126.48705 | 91 ft | 5 kts | 258° |
| 2026-04-22 08:12 | 33.50550 | 126.48657 | 90 ft | 7 kts | 281° |
| 2026-04-22 08:13 | 33.50572 | 126.48594 | 90 ft | 9 kts | 300° |
| 2026-04-22 08:13 | 33.50614 | 126.48524 | 91 ft | 11 kts | 303° |
| 2026-04-22 08:13 | 33.50611 | 126.48426 | 92 ft | 14 kts | 240° |
| 2026-04-22 08:13 | 33.50547 | 126.48313 | 91 ft | 19 kts | 237° |
| 2026-04-22 08:14 | 33.50472 | 126.48166 | 92 ft | 23 kts | 238° |
| 2026-04-22 08:14 | 33.50382 | 126.47991 | 93 ft | 27 kts | 238° |
| 2026-04-22 08:14 | 33.50278 | 126.47786 | 95 ft | 31 kts | 239° |
| 2026-04-22 08:14 | 33.50161 | 126.47554 | 94 ft | 35 kts | 238° |
| 2026-04-22 08:15 | 33.50025 | 126.47297 | 95 ft | 39 kts | 237° |
| 2026-04-22 08:15 | 33.49885 | 126.47037 | 96 ft | 30 kts | 243° |
| 2026-04-22 08:15 | 33.49915 | 126.46872 | 97 ft | 15 kts | 328° |
| 2026-04-22 08:15 | 33.50007 | 126.46882 | 96 ft | 12 kts | 52° |
| 2026-04-22 08:16 | 33.50030 | 126.46938 | 97 ft | 0 kts | 61° |
| 2026-04-22 08:16 | 33.50060 | 126.47000 | 95 ft | 36 kts | 60° |
| 2026-04-22 08:16 | 33.50310 | 126.47493 | 95 ft | 97 kts | 54° |
| 2026-04-22 08:17 | 33.50733 | 126.48345 | 96 ft | 142 kts | 65° |
| 2026-04-22 08:17 | 33.51211 | 126.49370 | 694 ft | 136 kts | 62° |
| 2026-04-22 08:17 | 33.51719 | 126.50332 | 1260 ft | 138 kts | 61° |
| 2026-04-22 08:17 | 33.52262 | 126.51365 | 1592 ft | 157 kts | 61° |
| 2026-04-22 08:18 | 33.52882 | 126.52557 | 1845 ft | 180 kts | 61° |
| 2026-04-22 08:18 | 33.53590 | 126.53924 | 2098 ft | 206 kts | 61° |
| 2026-04-22 08:18 | 33.54388 | 126.55470 | 2483 ft | 230 kts | 61° |
| 2026-04-22 08:18 | 33.55251 | 126.57143 | 3141 ft | 242 kts | 62° |
| 2026-04-22 08:19 | 33.56151 | 126.58888 | 3916 ft | 251 kts | 62° |
| 2026-04-22 08:19 | 33.57278 | 126.60553 | 4630 ft | 269 kts | 40° |
| 2026-04-22 08:19 | 33.58951 | 126.61684 | 5370 ft | 282 kts | 27° |
| 2026-04-22 08:19 | 33.60744 | 126.62718 | 6184 ft | 290 kts | 25° |
| 2026-04-22 08:20 | 33.62590 | 126.63769 | 6778 ft | 297 kts | 25° |
| 2026-04-22 08:20 | 33.64459 | 126.64831 | 6960 ft | 297 kts | 24° |
| 2026-04-22 08:20 | 33.66321 | 126.65895 | 7000 ft | 296 kts | 25° |
| 2026-04-22 08:20 | 33.68182 | 126.66960 | 7005 ft | 296 kts | 24° |
| 2026-04-22 08:21 | 33.70039 | 126.68025 | 7009 ft | 296 kts | 25° |
| 2026-04-22 08:21 | 33.71896 | 126.69097 | 7008 ft | 296 kts | 25° |
| 2026-04-22 08:21 | 33.73749 | 126.70167 | 7004 ft | 295 kts | 25° |
| 2026-04-22 08:21 | 33.75600 | 126.71236 | 7006 ft | 295 kts | 25° |
| 2026-04-22 08:22 | 33.77453 | 126.72306 | 7003 ft | 296 kts | 25° |
| 2026-04-22 08:22 | 33.79306 | 126.73376 | 7005 ft | 296 kts | 25° |
| 2026-04-22 08:22 | 33.81160 | 126.74451 | 7007 ft | 296 kts | 25° |
| 2026-04-22 08:22 | 33.83014 | 126.75529 | 7004 ft | 296 kts | 25° |
| 2026-04-22 08:23 | 33.84871 | 126.76607 | 7003 ft | 297 kts | 25° |
| 2026-04-22 08:23 | 33.86730 | 126.77684 | 7010 ft | 296 kts | 25° |
| 2026-04-22 08:23 | 33.88587 | 126.78760 | 7007 ft | 296 kts | 25° |
| 2026-04-22 08:23 | 33.90443 | 126.79836 | 7009 ft | 296 kts | 25° |
| 2026-04-22 08:24 | 33.92299 | 126.80911 | 7009 ft | 296 kts | 25° |
| 2026-04-22 08:24 | 33.94153 | 126.81988 | 7008 ft | 296 kts | 25° |
| 2026-04-22 08:24 | 33.96002 | 126.83065 | 7007 ft | 295 kts | 25° |
| 2026-04-22 08:24 | 33.97850 | 126.84144 | 7007 ft | 295 kts | 25° |
| 2026-04-22 08:25 | 33.99698 | 126.85223 | 7012 ft | 295 kts | 25° |
| 2026-04-22 08:25 | 34.01549 | 126.86298 | 7009 ft | 295 kts | 25° |
| 2026-04-22 08:25 | 34.03401 | 126.87373 | 7014 ft | 295 kts | 25° |
| 2026-04-22 08:25 | 34.05252 | 126.88449 | 7022 ft | 295 kts | 25° |
| 2026-04-22 08:26 | 34.07101 | 126.89527 | 7023 ft | 295 kts | 25° |
| 2026-04-22 08:26 | 34.08951 | 126.90606 | 7030 ft | 295 kts | 25° |
| 2026-04-22 08:26 | 34.10801 | 126.91682 | 7035 ft | 295 kts | 24° |
| 2026-04-22 08:26 | 34.12656 | 126.92762 | 7036 ft | 294 kts | 25° |
| 2026-04-22 08:27 | 34.14499 | 126.93836 | 7042 ft | 294 kts | 25° |
| 2026-04-22 08:27 | 34.16333 | 126.94907 | 7041 ft | 293 kts | 25° |
| 2026-04-22 08:27 | 34.18167 | 126.95983 | 7044 ft | 293 kts | 25° |
| 2026-04-22 08:27 | 34.20000 | 126.97059 | 7048 ft | 293 kts | 25° |
| 2026-04-22 08:28 | 34.21832 | 126.98137 | 7050 ft | 293 kts | 25° |
| 2026-04-22 08:28 | 34.23664 | 126.99213 | 7052 ft | 292 kts | 25° |
| 2026-04-22 08:28 | 34.25495 | 127.00286 | 7050 ft | 291 kts | 25° |
| 2026-04-22 08:28 | 34.27318 | 127.01356 | 7050 ft | 291 kts | 25° |
| 2026-04-22 08:29 | 34.29134 | 127.02422 | 7051 ft | 291 kts | 25° |
| 2026-04-22 08:29 | 34.30955 | 127.03489 | 7054 ft | 291 kts | 25° |
| 2026-04-22 08:29 | 34.32780 | 127.04558 | 7052 ft | 291 kts | 25° |
| 2026-04-22 08:29 | 34.34602 | 127.05625 | 7057 ft | 291 kts | 25° |
| 2026-04-22 08:30 | 34.36422 | 127.06692 | 7053 ft | 290 kts | 25° |
| 2026-04-22 08:30 | 34.38240 | 127.07759 | 7054 ft | 290 kts | 25° |
| 2026-04-22 08:30 | 34.40061 | 127.08829 | 7057 ft | 290 kts | 25° |
| 2026-04-22 08:30 | 34.41852 | 127.09882 | 6855 ft | 289 kts | 25° |
| 2026-04-22 08:31 | 34.43634 | 127.10933 | 6766 ft | 279 kts | 25° |
| 2026-04-22 08:31 | 34.45341 | 127.11943 | 6708 ft | 268 kts | 25° |
| 2026-04-22 08:31 | 34.48564 | 127.13845 | 6578 ft | 247 kts | 25° |
| 2026-04-22 08:32 | 34.50086 | 127.14742 | 6538 ft | 242 kts | 25° |
| 2026-04-22 08:32 | 34.51601 | 127.15636 | 6487 ft | 242 kts | 25° |
| 2026-04-22 08:32 | 34.53116 | 127.16530 | 6436 ft | 242 kts | 25° |
| 2026-04-22 08:32 | 34.54631 | 127.17422 | 6385 ft | 242 kts | 25° |
| 2026-04-22 08:33 | 34.56144 | 127.18316 | 6328 ft | 242 kts | 25° |
| 2026-04-22 08:33 | 34.57656 | 127.19209 | 6273 ft | 242 kts | 25° |
| 2026-04-22 08:33 | 34.59166 | 127.20101 | 6215 ft | 241 kts | 25° |
| 2026-04-22 08:33 | 34.60677 | 127.20992 | 6163 ft | 241 kts | 25° |
| 2026-04-22 08:34 | 34.62186 | 127.21881 | 6108 ft | 241 kts | 25° |
| 2026-04-22 08:34 | 34.63693 | 127.22773 | 6048 ft | 241 kts | 25° |
| 2026-04-22 08:34 | 34.65197 | 127.23664 | 6004 ft | 241 kts | 25° |
| 2026-04-22 08:34 | 34.66705 | 127.24555 | 5942 ft | 241 kts | 25° |
| 2026-04-22 08:35 | 34.68213 | 127.25449 | 5887 ft | 241 kts | 26° |
| 2026-04-22 08:35 | 34.69711 | 127.26339 | 5825 ft | 240 kts | 26° |
| 2026-04-22 08:35 | 34.71209 | 127.27228 | 5771 ft | 239 kts | 26° |
| 2026-04-22 08:35 | 34.72701 | 127.28111 | 5717 ft | 238 kts | 26° |
| 2026-04-22 08:36 | 34.74192 | 127.28996 | 5661 ft | 238 kts | 26° |
| 2026-04-22 08:36 | 34.75677 | 127.29880 | 5608 ft | 237 kts | 26° |
| 2026-04-22 08:36 | 34.77160 | 127.30764 | 5555 ft | 237 kts | 27° |
| 2026-04-22 08:36 | 34.78642 | 127.31646 | 5496 ft | 237 kts | 27° |
| 2026-04-22 08:37 | 34.80120 | 127.32521 | 5444 ft | 236 kts | 27° |
| 2026-04-22 08:37 | 34.81592 | 127.33392 | 5386 ft | 234 kts | 27° |
| 2026-04-22 08:37 | 34.83053 | 127.34255 | 5332 ft | 233 kts | 27° |
| 2026-04-22 08:37 | 34.84508 | 127.35119 | 5287 ft | 232 kts | 28° |
| 2026-04-22 08:38 | 34.85939 | 127.35971 | 5234 ft | 231 kts | 28° |
| 2026-04-22 08:38 | 34.87378 | 127.36829 | 5173 ft | 230 kts | 28° |
| 2026-04-22 08:38 | 34.88813 | 127.37685 | 5127 ft | 230 kts | 28° |
| 2026-04-22 08:38 | 34.90243 | 127.38538 | 5075 ft | 228 kts | 28° |
| 2026-04-22 08:39 | 34.91659 | 127.39384 | 5015 ft | 226 kts | 28° |
| 2026-04-22 08:39 | 34.93060 | 127.40219 | 4968 ft | 219 kts | 28° |
| 2026-04-22 08:39 | 34.94386 | 127.41010 | 4979 ft | 208 kts | 28° |
| 2026-04-22 08:39 | 34.95667 | 127.41830 | 4989 ft | 208 kts | 34° |
| 2026-04-22 08:40 | 34.96828 | 127.42841 | 4871 ft | 204 kts | 42° |
| 2026-04-22 08:40 | 34.97895 | 127.43959 | 4738 ft | 200 kts | 46° |
| 2026-04-22 08:40 | 34.98880 | 127.45144 | 4608 ft | 198 kts | 50° |
| 2026-04-22 08:40 | 34.99784 | 127.46398 | 4477 ft | 196 kts | 53° |
| 2026-04-22 08:41 | 35.00609 | 127.47715 | 4337 ft | 195 kts | 57° |
| 2026-04-22 08:41 | 35.01356 | 127.49089 | 4130 ft | 190 kts | 60° |
| 2026-04-22 08:41 | 35.01826 | 127.50547 | 3894 ft | 183 kts | 85° |
| 2026-04-22 08:41 | 35.01690 | 127.52023 | 3634 ft | 169 kts | 110° |
| 2026-04-22 08:42 | 35.01082 | 127.53189 | 3389 ft | 160 kts | 133° |
| 2026-04-22 08:42 | 35.00141 | 127.53835 | 3254 ft | 154 kts | 153° |
| 2026-04-22 08:42 | 34.99154 | 127.54361 | 3046 ft | 155 kts | 153° |
| 2026-04-22 08:42 | 34.98163 | 127.54873 | 2818 ft | 153 kts | 153° |
| 2026-04-22 08:43 | 34.97195 | 127.55359 | 2615 ft | 147 kts | 154° |
| 2026-04-22 08:43 | 34.96247 | 127.55829 | 2439 ft | 148 kts | 154° |
| 2026-04-22 08:43 | 34.95285 | 127.56304 | 2209 ft | 148 kts | 155° |
| 2026-04-22 08:43 | 34.94352 | 127.56762 | 2049 ft | 143 kts | 154° |
| 2026-04-22 08:44 | 34.93437 | 127.57212 | 1839 ft | 140 kts | 153° |
| 2026-04-22 08:44 | 34.92530 | 127.57658 | 1654 ft | 140 kts | 154° |
| 2026-04-22 08:44 | 34.91630 | 127.58099 | 1464 ft | 140 kts | 154° |
| 2026-04-22 08:44 | 34.90728 | 127.58541 | 1279 ft | 139 kts | 155° |
| 2026-04-22 08:45 | 34.89830 | 127.58982 | 1073 ft | 139 kts | 154° |
| 2026-04-22 08:45 | 34.89237 | 127.59273 | 942 ft | 138 kts | 154° |
| 2026-04-22 08:45 | 34.88059 | 127.59850 | 697 ft | 139 kts | 154° |
| 2026-04-22 08:45 | 34.87455 | 127.60146 | 569 ft | 139 kts | 154° |
| 2026-04-22 08:46 | 34.86558 | 127.60586 | 387 ft | 138 kts | 155° |
| 2026-04-22 08:46 | 34.85387 | 127.61159 | 148 ft | 136 kts | 154° |
| 2026-04-22 08:46 | 34.84796 | 127.61448 | 54 ft | 133 kts | 156° |
| 2026-04-22 08:46 | 34.84139 | 127.61771 | 46 ft | 60 kts | 159° |
| 2026-04-22 08:47 | 34.84003 | 127.61836 | 48 ft | 3 kts | 160° |
| 2026-04-22 08:47 | 34.83932 | 127.61866 | 48 ft | 18 kts | 159° |
| 2026-04-22 08:47 | 34.83799 | 127.61927 | 48 ft | 20 kts | 178° |
| 2026-04-22 08:47 | 34.83720 | 127.61818 | 49 ft | 19 kts | 250° |
| 2026-04-22 08:48 | 34.83782 | 127.61707 | 49 ft | 19 kts | 336° |
| 2026-04-22 08:48 | 34.83918 | 127.61638 | 50 ft | 23 kts | 338° |
| 2026-04-22 08:48 | 34.84081 | 127.61560 | 49 ft | 27 kts | 339° |
| 2026-04-22 08:48 | 34.84243 | 127.61483 | 49 ft | 20 kts | 328° |
| 2026-04-22 08:49 | 34.84226 | 127.61356 | 50 ft | 11 kts | 256° |
| 2026-04-22 08:49 | 34.84226 | 127.61352 | 47 ft | 0 kts | 261° |